sensor_id;sensor_type;location;lat;lon;timestamp;P1;durP1;ratioP1;P2;durP2;ratioP2
77330;SDS011;66405;48.328;7.820;2023-02-24T00:00:07;29.33;;;13.80;;
77330;SDS011;66405;48.328;7.820;2023-02-24T00:02:53;32.47;;;16.45;;
77330;SDS011;66405;48.328;7.820;2023-02-24T00:05:18;26.92;;;12.80;;
77330;SDS011;66405;48.328;7.820;2023-02-24T00:07:44;35.05;;;14.77;;
77330;SDS011;66405;48.328;7.820;2023-02-24T00:10:13;25.25;;;13.55;;
77330;SDS011;66405;48.328;7.820;2023-02-24T00:12:43;26.55;;;12.82;;
77330;SDS011;66405;48.328;7.820;2023-02-24T00:15:12;34.55;;;14.77;;
77330;SDS011;66405;48.328;7.820;2023-02-24T00:20:07;25.63;;;12.75;;
77330;SDS011;66405;48.328;7.820;2023-02-24T00:22:37;27.55;;;12.80;;
77330;SDS011;66405;48.328;7.820;2023-02-24T00:27:31;22.10;;;11.98;;
77330;SDS011;66405;48.328;7.820;2023-02-24T00:29:56;25.38;;;13.15;;
77330;SDS011;66405;48.328;7.820;2023-02-24T00:32:22;24.70;;;11.77;;
77330;SDS011;66405;48.328;7.820;2023-02-24T00:34:47;28.75;;;13.38;;
77330;SDS011;66405;48.328;7.820;2023-02-24T00:37:13;26.73;;;12.63;;
77330;SDS011;66405;48.328;7.820;2023-02-24T00:39:48;27.13;;;12.77;;
77330;SDS011;66405;48.328;7.820;2023-02-24T00:42:21;24.40;;;13.50;;
77330;SDS011;66405;48.328;7.820;2023-02-24T00:44:47;23.35;;;10.90;;
77330;SDS011;66405;48.328;7.820;2023-02-24T00:47:15;26.55;;;11.82;;
77330;SDS011;66405;48.328;7.820;2023-02-24T00:49:41;29.95;;;12.02;;
77330;SDS011;66405;48.328;7.820;2023-02-24T00:52:07;23.67;;;12.43;;
77330;SDS011;66405;48.328;7.820;2023-02-24T00:54:37;29.95;;;12.75;;
77330;SDS011;66405;48.328;7.820;2023-02-24T00:57:03;23.83;;;12.50;;
77330;SDS011;66405;48.328;7.820;2023-02-24T00:59:32;26.50;;;12.07;;
77330;SDS011;66405;48.328;7.820;2023-02-24T01:01:59;25.02;;;12.38;;
77330;SDS011;66405;48.328;7.820;2023-02-24T01:04:27;28.40;;;12.13;;
77330;SDS011;66405;48.328;7.820;2023-02-24T01:06:54;30.30;;;12.23;;
77330;SDS011;66405;48.328;7.820;2023-02-24T01:09:30;26.27;;;12.82;;
77330;SDS011;66405;48.328;7.820;2023-02-24T01:11:56;26.20;;;14.43;;
77330;SDS011;66405;48.328;7.820;2023-02-24T01:14:42;25.15;;;13.13;;
77330;SDS011;66405;48.328;7.820;2023-02-24T01:17:09;27.00;;;14.68;;
77330;SDS011;66405;48.328;7.820;2023-02-24T01:19:35;26.35;;;13.13;;
77330;SDS011;66405;48.328;7.820;2023-02-24T01:22:02;27.13;;;14.02;;
77330;SDS011;66405;48.328;7.820;2023-02-24T01:24:31;27.40;;;15.18;;
77330;SDS011;66405;48.328;7.820;2023-02-24T01:26:58;30.30;;;14.90;;
77330;SDS011;66405;48.328;7.820;2023-02-24T01:29:24;24.55;;;14.75;;
77330;SDS011;66405;48.328;7.820;2023-02-24T01:31:50;25.33;;;14.57;;
77330;SDS011;66405;48.328;7.820;2023-02-24T01:34:17;25.08;;;13.63;;
77330;SDS011;66405;48.328;7.820;2023-02-24T01:36:43;28.65;;;14.32;;
77330;SDS011;66405;48.328;7.820;2023-02-24T01:39:12;25.10;;;13.50;;
77330;SDS011;66405;48.328;7.820;2023-02-24T01:41:38;29.95;;;16.15;;
77330;SDS011;66405;48.328;7.820;2023-02-24T01:44:56;29.85;;;14.43;;
77330;SDS011;66405;48.328;7.820;2023-02-24T01:46:57;28.33;;;14.10;;
77330;SDS011;66405;48.328;7.820;2023-02-24T01:49:27;24.60;;;13.13;;
77330;SDS011;66405;48.328;7.820;2023-02-24T01:54:36;27.67;;;14.68;;
77330;SDS011;66405;48.328;7.820;2023-02-24T01:57:11;29.63;;;14.65;;
77330;SDS011;66405;48.328;7.820;2023-02-24T01:59:41;27.38;;;14.73;;
77330;SDS011;66405;48.328;7.820;2023-02-24T02:02:08;26.02;;;14.93;;
77330;SDS011;66405;48.328;7.820;2023-02-24T02:04:41;30.55;;;16.02;;
77330;SDS011;66405;48.328;7.820;2023-02-24T02:07:11;25.17;;;14.13;;
77330;SDS011;66405;48.328;7.820;2023-02-24T02:09:40;32.47;;;16.42;;
77330;SDS011;66405;48.328;7.820;2023-02-24T02:12:06;29.23;;;15.93;;
77330;SDS011;66405;48.328;7.820;2023-02-24T02:14:33;31.85;;;16.00;;
77330;SDS011;66405;48.328;7.820;2023-02-24T02:22:34;26.63;;;15.02;;
77330;SDS011;66405;48.328;7.820;2023-02-24T02:41:59;26.73;;;13.65;;
77330;SDS011;66405;48.328;7.820;2023-02-24T02:44:45;28.73;;;14.88;;
77330;SDS011;66405;48.328;7.820;2023-02-24T02:52:57;28.83;;;13.90;;
77330;SDS011;66405;48.328;7.820;2023-02-24T03:00:40;26.70;;;13.40;;
77330;SDS011;66405;48.328;7.820;2023-02-24T03:03:16;26.65;;;13.57;;
77330;SDS011;66405;48.328;7.820;2023-02-24T03:05:48;28.52;;;13.93;;
77330;SDS011;66405;48.328;7.820;2023-02-24T03:08:22;23.55;;;12.57;;
77330;SDS011;66405;48.328;7.820;2023-02-24T03:10:50;25.73;;;14.00;;
77330;SDS011;66405;48.328;7.820;2023-02-24T03:13:19;26.00;;;13.60;;
77330;SDS011;66405;48.328;7.820;2023-02-24T03:15:47;34.72;;;14.52;;
77330;SDS011;66405;48.328;7.820;2023-02-24T03:18:21;29.33;;;14.98;;
77330;SDS011;66405;48.328;7.820;2023-02-24T03:20:56;28.85;;;13.88;;
77330;SDS011;66405;48.328;7.820;2023-02-24T03:23:32;29.95;;;13.48;;
77330;SDS011;66405;48.328;7.820;2023-02-24T03:26:04;40.35;;;15.35;;
77330;SDS011;66405;48.328;7.820;2023-02-24T03:28:34;36.95;;;15.73;;
77330;SDS011;66405;48.328;7.820;2023-02-24T03:31:08;37.90;;;14.30;;
77330;SDS011;66405;48.328;7.820;2023-02-24T03:33:44;37.85;;;15.68;;
77330;SDS011;66405;48.328;7.820;2023-02-24T03:36:16;43.88;;;16.63;;
77330;SDS011;66405;48.328;7.820;2023-02-24T03:38:41;38.13;;;16.55;;
77330;SDS011;66405;48.328;7.820;2023-02-24T03:41:08;34.40;;;15.95;;
77330;SDS011;66405;48.328;7.820;2023-02-24T03:43:39;48.17;;;18.58;;
77330;SDS011;66405;48.328;7.820;2023-02-24T03:46:13;57.50;;;20.13;;
77330;SDS011;66405;48.328;7.820;2023-02-24T03:48:45;55.17;;;20.17;;
77330;SDS011;66405;48.328;7.820;2023-02-24T03:51:16;55.67;;;20.17;;
77330;SDS011;66405;48.328;7.820;2023-02-24T04:04:55;68.18;;;20.73;;
77330;SDS011;66405;48.328;7.820;2023-02-24T04:07:46;64.20;;;19.60;;
77330;SDS011;66405;48.328;7.820;2023-02-24T04:10:25;63.55;;;19.30;;
77330;SDS011;66405;48.328;7.820;2023-02-24T04:13:03;65.05;;;19.38;;
77330;SDS011;66405;48.328;7.820;2023-02-24T04:15:46;76.55;;;21.42;;
77330;SDS011;66405;48.328;7.820;2023-02-24T04:18:24;77.40;;;19.17;;
77330;SDS011;66405;48.328;7.820;2023-02-24T04:23:22;69.43;;;21.63;;
77330;SDS011;66405;48.328;7.820;2023-02-24T04:25:52;67.43;;;20.55;;
77330;SDS011;66405;48.328;7.820;2023-02-24T04:28:23;67.55;;;21.52;;
77330;SDS011;66405;48.328;7.820;2023-02-24T04:30:58;67.00;;;21.38;;
77330;SDS011;66405;48.328;7.820;2023-02-24T04:33:31;61.47;;;20.55;;
77330;SDS011;66405;48.328;7.820;2023-02-24T04:35:57;60.95;;;22.65;;
77330;SDS011;66405;48.328;7.820;2023-02-24T04:38:24;72.53;;;24.25;;
77330;SDS011;66405;48.328;7.820;2023-02-24T04:40:50;74.85;;;22.52;;
77330;SDS011;66405;48.328;7.820;2023-02-24T04:43:15;67.18;;;22.70;;
77330;SDS011;66405;48.328;7.820;2023-02-24T04:45:42;73.90;;;21.48;;
77330;SDS011;66405;48.328;7.820;2023-02-24T04:48:09;71.00;;;20.75;;
77330;SDS011;66405;48.328;7.820;2023-02-24T04:50:37;79.03;;;24.58;;
77330;SDS011;66405;48.328;7.820;2023-02-24T04:53:06;70.90;;;22.80;;
77330;SDS011;66405;48.328;7.820;2023-02-24T04:55:35;130.85;;;53.10;;
77330;SDS011;66405;48.328;7.820;2023-02-24T04:58:04;86.47;;;26.38;;
77330;SDS011;66405;48.328;7.820;2023-02-24T05:00:31;68.18;;;23.85;;
77330;SDS011;66405;48.328;7.820;2023-02-24T05:03:03;64.90;;;23.55;;
77330;SDS011;66405;48.328;7.820;2023-02-24T05:08:07;62.15;;;19.45;;
77330;SDS011;66405;48.328;7.820;2023-02-24T05:10:38;85.50;;;22.90;;
77330;SDS011;66405;48.328;7.820;2023-02-24T05:13:06;90.03;;;22.52;;
77330;SDS011;66405;48.328;7.820;2023-02-24T05:15:34;108.20;;;34.25;;
77330;SDS011;66405;48.328;7.820;2023-02-24T05:18:04;216.70;;;113.25;;
77330;SDS011;66405;48.328;7.820;2023-02-24T05:20:37;105.80;;;21.63;;
77330;SDS011;66405;48.328;7.820;2023-02-24T05:23:27;109.00;;;22.10;;
77330;SDS011;66405;48.328;7.820;2023-02-24T05:25:59;78.60;;;22.52;;
77330;SDS011;66405;48.328;7.820;2023-02-24T05:28:26;82.25;;;23.08;;
77330;SDS011;66405;48.328;7.820;2023-02-24T05:31:02;88.45;;;20.33;;
77330;SDS011;66405;48.328;7.820;2023-02-24T05:33:33;75.00;;;20.48;;
77330;SDS011;66405;48.328;7.820;2023-02-24T05:36:04;84.63;;;20.10;;
77330;SDS011;66405;48.328;7.820;2023-02-24T05:38:32;86.85;;;20.00;;
77330;SDS011;66405;48.328;7.820;2023-02-24T05:41:05;83.75;;;19.52;;
77330;SDS011;66405;48.328;7.820;2023-02-24T05:43:32;71.25;;;19.27;;
77330;SDS011;66405;48.328;7.820;2023-02-24T05:46:03;76.05;;;22.10;;
77330;SDS011;66405;48.328;7.820;2023-02-24T05:48:29;79.53;;;20.77;;
77330;SDS011;66405;48.328;7.820;2023-02-24T05:51:02;76.85;;;23.42;;
77330;SDS011;66405;48.328;7.820;2023-02-24T05:53:32;69.25;;;20.85;;
77330;SDS011;66405;48.328;7.820;2023-02-24T05:56:01;72.05;;;20.65;;
77330;SDS011;66405;48.328;7.820;2023-02-24T05:58:29;70.20;;;17.98;;
77330;SDS011;66405;48.328;7.820;2023-02-24T06:00:56;66.80;;;20.42;;
77330;SDS011;66405;48.328;7.820;2023-02-24T06:03:23;64.80;;;18.13;;
77330;SDS011;66405;48.328;7.820;2023-02-24T06:05:55;58.85;;;18.65;;
77330;SDS011;66405;48.328;7.820;2023-02-24T06:08:23;53.50;;;16.70;;
77330;SDS011;66405;48.328;7.820;2023-02-24T06:10:50;61.30;;;17.73;;
77330;SDS011;66405;48.328;7.820;2023-02-24T06:13:16;62.50;;;17.40;;
77330;SDS011;66405;48.328;7.820;2023-02-24T06:15:41;53.85;;;16.63;;
77330;SDS011;66405;48.328;7.820;2023-02-24T06:18:14;54.30;;;17.23;;
77330;SDS011;66405;48.328;7.820;2023-02-24T06:20:41;58.58;;;15.95;;
77330;SDS011;66405;48.328;7.820;2023-02-24T06:23:09;46.95;;;17.17;;
77330;SDS011;66405;48.328;7.820;2023-02-24T06:25:34;53.50;;;17.55;;
77330;SDS011;66405;48.328;7.820;2023-02-24T06:28:02;53.45;;;16.85;;
77330;SDS011;66405;48.328;7.820;2023-02-24T06:30:28;53.63;;;17.58;;
77330;SDS011;66405;48.328;7.820;2023-02-24T06:32:53;52.03;;;18.67;;
77330;SDS011;66405;48.328;7.820;2023-02-24T06:35:20;60.40;;;17.50;;
77330;SDS011;66405;48.328;7.820;2023-02-24T06:37:46;50.20;;;17.00;;
77330;SDS011;66405;48.328;7.820;2023-02-24T06:40:12;43.60;;;15.82;;
77330;SDS011;66405;48.328;7.820;2023-02-24T06:42:48;59.78;;;17.15;;
77330;SDS011;66405;48.328;7.820;2023-02-24T06:45:19;49.70;;;17.33;;
77330;SDS011;66405;48.328;7.820;2023-02-24T06:47:48;56.53;;;17.63;;
77330;SDS011;66405;48.328;7.820;2023-02-24T06:50:14;60.95;;;18.10;;
77330;SDS011;66405;48.328;7.820;2023-02-24T06:52:43;48.30;;;17.23;;
77330;SDS011;66405;48.328;7.820;2023-02-24T06:55:10;47.65;;;18.35;;
77330;SDS011;66405;48.328;7.820;2023-02-24T06:58:00;51.70;;;17.13;;
77330;SDS011;66405;48.328;7.820;2023-02-24T07:00:30;52.22;;;17.40;;
77330;SDS011;66405;48.328;7.820;2023-02-24T07:03:07;40.92;;;16.77;;
77330;SDS011;66405;48.328;7.820;2023-02-24T07:05:42;44.92;;;18.25;;
77330;SDS011;66405;48.328;7.820;2023-02-24T07:08:16;44.13;;;17.35;;
77330;SDS011;66405;48.328;7.820;2023-02-24T07:10:43;47.90;;;17.98;;
77330;SDS011;66405;48.328;7.820;2023-02-24T07:13:08;47.38;;;16.35;;
77330;SDS011;66405;48.328;7.820;2023-02-24T07:15:35;51.55;;;16.77;;
77330;SDS011;66405;48.328;7.820;2023-02-24T07:18:03;44.00;;;15.93;;
77330;SDS011;66405;48.328;7.820;2023-02-24T07:20:28;45.05;;;16.50;;
77330;SDS011;66405;48.328;7.820;2023-02-24T07:22:57;35.80;;;14.95;;
77330;SDS011;66405;48.328;7.820;2023-02-24T07:25:24;46.55;;;17.08;;
77330;SDS011;66405;48.328;7.820;2023-02-24T07:27:58;46.65;;;17.95;;
77330;SDS011;66405;48.328;7.820;2023-02-24T07:30:29;53.20;;;16.35;;
77330;SDS011;66405;48.328;7.820;2023-02-24T07:32:55;43.58;;;17.38;;
77330;SDS011;66405;48.328;7.820;2023-02-24T07:35:21;46.08;;;15.63;;
77330;SDS011;66405;48.328;7.820;2023-02-24T07:37:48;55.75;;;18.20;;
77330;SDS011;66405;48.328;7.820;2023-02-24T07:40:15;59.13;;;17.73;;
77330;SDS011;66405;48.328;7.820;2023-02-24T07:42:42;65.80;;;15.93;;
77330;SDS011;66405;48.328;7.820;2023-02-24T07:45:08;61.50;;;17.98;;
77330;SDS011;66405;48.328;7.820;2023-02-24T07:47:34;60.83;;;18.88;;
77330;SDS011;66405;48.328;7.820;2023-02-24T07:50:00;67.55;;;18.30;;
77330;SDS011;66405;48.328;7.820;2023-02-24T07:52:35;57.90;;;16.25;;
77330;SDS011;66405;48.328;7.820;2023-02-24T07:55:01;60.45;;;17.15;;
77330;SDS011;66405;48.328;7.820;2023-02-24T07:57:27;57.10;;;15.60;;
77330;SDS011;66405;48.328;7.820;2023-02-24T07:59:53;62.08;;;18.30;;
77330;SDS011;66405;48.328;7.820;2023-02-24T08:02:18;53.80;;;17.23;;
77330;SDS011;66405;48.328;7.820;2023-02-24T08:04:48;55.67;;;17.60;;
77330;SDS011;66405;48.328;7.820;2023-02-24T08:07:20;53.28;;;16.35;;
77330;SDS011;66405;48.328;7.820;2023-02-24T08:09:49;60.35;;;17.65;;
77330;SDS011;66405;48.328;7.820;2023-02-24T08:12:32;62.17;;;15.05;;
77330;SDS011;66405;48.328;7.820;2023-02-24T08:14:59;64.60;;;17.27;;
77330;SDS011;66405;48.328;7.820;2023-02-24T08:17:34;65.93;;;17.50;;
77330;SDS011;66405;48.328;7.820;2023-02-24T08:19:59;65.10;;;18.75;;
77330;SDS011;66405;48.328;7.820;2023-02-24T08:22:47;71.07;;;19.73;;
77330;SDS011;66405;48.328;7.820;2023-02-24T08:25:17;66.03;;;19.27;;
77330;SDS011;66405;48.328;7.820;2023-02-24T08:27:47;61.33;;;18.58;;
77330;SDS011;66405;48.328;7.820;2023-02-24T08:30:20;74.57;;;17.65;;
77330;SDS011;66405;48.328;7.820;2023-02-24T08:32:48;67.07;;;17.83;;
77330;SDS011;66405;48.328;7.820;2023-02-24T08:35:22;64.10;;;19.20;;
77330;SDS011;66405;48.328;7.820;2023-02-24T08:37:57;62.28;;;19.65;;
77330;SDS011;66405;48.328;7.820;2023-02-24T08:40:30;59.50;;;17.30;;
77330;SDS011;66405;48.328;7.820;2023-02-24T08:43:09;55.60;;;17.42;;
77330;SDS011;66405;48.328;7.820;2023-02-24T08:51:12;65.30;;;18.55;;
77330;SDS011;66405;48.328;7.820;2023-02-24T08:53:43;59.95;;;16.50;;
77330;SDS011;66405;48.328;7.820;2023-02-24T08:56:11;59.88;;;17.50;;
77330;SDS011;66405;48.328;7.820;2023-02-24T08:58:42;62.03;;;18.52;;
77330;SDS011;66405;48.328;7.820;2023-02-24T09:01:16;57.17;;;17.90;;
77330;SDS011;66405;48.328;7.820;2023-02-24T09:03:54;69.72;;;18.77;;
77330;SDS011;66405;48.328;7.820;2023-02-24T09:06:37;61.67;;;18.23;;
77330;SDS011;66405;48.328;7.820;2023-02-24T09:09:11;62.30;;;20.58;;
77330;SDS011;66405;48.328;7.820;2023-02-24T09:11:55;63.65;;;19.10;;
77330;SDS011;66405;48.328;7.820;2023-02-24T09:14:26;50.72;;;18.73;;
77330;SDS011;66405;48.328;7.820;2023-02-24T09:16:54;46.20;;;16.92;;
77330;SDS011;66405;48.328;7.820;2023-02-24T09:22:12;48.45;;;18.80;;
77330;SDS011;66405;48.328;7.820;2023-02-24T09:25:17;38.50;;;15.40;;
77330;SDS011;66405;48.328;7.820;2023-02-24T09:28:27;44.17;;;17.23;;
77330;SDS011;66405;48.328;7.820;2023-02-24T09:36:13;56.05;;;18.70;;
77330;SDS011;66405;48.328;7.820;2023-02-24T09:38:57;50.78;;;18.48;;
77330;SDS011;66405;48.328;7.820;2023-02-24T09:44:32;45.70;;;16.38;;
77330;SDS011;66405;48.328;7.820;2023-02-24T09:49:59;52.28;;;20.33;;
77330;SDS011;66405;48.328;7.820;2023-02-24T09:52:28;48.38;;;17.48;;
77330;SDS011;66405;48.328;7.820;2023-02-24T09:55:18;37.92;;;16.55;;
77330;SDS011;66405;48.328;7.820;2023-02-24T10:03:39;51.53;;;21.15;;
77330;SDS011;66405;48.328;7.820;2023-02-24T10:06:19;45.20;;;18.98;;
77330;SDS011;66405;48.328;7.820;2023-02-24T10:08:49;44.47;;;18.23;;
77330;SDS011;66405;48.328;7.820;2023-02-24T10:11:21;47.10;;;19.70;;
77330;SDS011;66405;48.328;7.820;2023-02-24T10:13:57;41.17;;;16.33;;
77330;SDS011;66405;48.328;7.820;2023-02-24T10:16:35;44.40;;;16.85;;
77330;SDS011;66405;48.328;7.820;2023-02-24T10:19:22;46.17;;;17.20;;
77330;SDS011;66405;48.328;7.820;2023-02-24T10:22:05;40.88;;;17.60;;
77330;SDS011;66405;48.328;7.820;2023-02-24T10:24:52;40.97;;;17.33;;
77330;SDS011;66405;48.328;7.820;2023-02-24T10:33:25;42.67;;;18.83;;
77330;SDS011;66405;48.328;7.820;2023-02-24T10:36:08;40.10;;;16.70;;
77330;SDS011;66405;48.328;7.820;2023-02-24T10:38:42;48.63;;;19.25;;
77330;SDS011;66405;48.328;7.820;2023-02-24T10:41:14;49.38;;;17.88;;
77330;SDS011;66405;48.328;7.820;2023-02-24T10:43:53;47.70;;;18.80;;
77330;SDS011;66405;48.328;7.820;2023-02-24T10:46:27;40.28;;;16.48;;
77330;SDS011;66405;48.328;7.820;2023-02-24T10:48:58;40.90;;;16.30;;
77330;SDS011;66405;48.328;7.820;2023-02-24T10:51:35;39.85;;;16.05;;
77330;SDS011;66405;48.328;7.820;2023-02-24T10:54:14;39.28;;;16.65;;
77330;SDS011;66405;48.328;7.820;2023-02-24T10:56:49;40.80;;;18.42;;
77330;SDS011;66405;48.328;7.820;2023-02-24T10:59:56;36.70;;;15.20;;
77330;SDS011;66405;48.328;7.820;2023-02-24T11:02:47;36.03;;;15.23;;
77330;SDS011;66405;48.328;7.820;2023-02-24T11:05:45;36.28;;;13.27;;
77330;SDS011;66405;48.328;7.820;2023-02-24T11:08:32;40.30;;;16.52;;
77330;SDS011;66405;48.328;7.820;2023-02-24T11:13:52;42.80;;;16.67;;
77330;SDS011;66405;48.328;7.820;2023-02-24T11:16:55;41.85;;;17.23;;
77330;SDS011;66405;48.328;7.820;2023-02-24T11:19:44;37.53;;;15.07;;
77330;SDS011;66405;48.328;7.820;2023-02-24T11:22:19;43.50;;;17.23;;
77330;SDS011;66405;48.328;7.820;2023-02-24T11:24:48;39.95;;;16.65;;
77330;SDS011;66405;48.328;7.820;2023-02-24T11:27:15;39.42;;;16.98;;
77330;SDS011;66405;48.328;7.820;2023-02-24T11:35:21;34.20;;;14.50;;
77330;SDS011;66405;48.328;7.820;2023-02-24T11:40:59;39.13;;;16.45;;
77330;SDS011;66405;48.328;7.820;2023-02-24T11:43:39;31.55;;;14.90;;
77330;SDS011;66405;48.328;7.820;2023-02-24T11:46:14;32.85;;;15.48;;
77330;SDS011;66405;48.328;7.820;2023-02-24T11:48:48;31.17;;;14.23;;
77330;SDS011;66405;48.328;7.820;2023-02-24T11:51:23;32.55;;;14.75;;
77330;SDS011;66405;48.328;7.820;2023-02-24T11:53:54;36.83;;;13.90;;
77330;SDS011;66405;48.328;7.820;2023-02-24T12:01:38;33.20;;;16.20;;
77330;SDS011;66405;48.328;7.820;2023-02-24T12:09:35;30.30;;;13.70;;
77330;SDS011;66405;48.328;7.820;2023-02-24T12:12:12;34.22;;;15.50;;
77330;SDS011;66405;48.328;7.820;2023-02-24T12:14:49;33.35;;;15.63;;
77330;SDS011;66405;48.328;7.820;2023-02-24T12:23:01;33.88;;;15.75;;
77330;SDS011;66405;48.328;7.820;2023-02-24T12:36:31;34.60;;;15.88;;
77330;SDS011;66405;48.328;7.820;2023-02-24T12:39:11;34.55;;;15.70;;
77330;SDS011;66405;48.328;7.820;2023-02-24T12:41:49;39.28;;;16.70;;
77330;SDS011;66405;48.328;7.820;2023-02-24T12:49:55;40.95;;;16.10;;
77330;SDS011;66405;48.328;7.820;2023-02-24T12:52:30;31.33;;;15.00;;
77330;SDS011;66405;48.328;7.820;2023-02-24T13:14:28;31.98;;;15.32;;
77330;SDS011;66405;48.328;7.820;2023-02-24T13:17:28;49.45;;;20.08;;
77330;SDS011;66405;48.328;7.820;2023-02-24T13:19:49;34.63;;;15.30;;
77330;SDS011;66405;48.328;7.820;2023-02-24T13:22:31;53.55;;;26.08;;
77330;SDS011;66405;48.328;7.820;2023-02-24T13:24:58;51.22;;;24.08;;
77330;SDS011;66405;48.328;7.820;2023-02-24T13:27:53;41.60;;;17.27;;
77330;SDS011;66405;48.328;7.820;2023-02-24T13:35:35;62.60;;;26.58;;
77330;SDS011;66405;48.328;7.820;2023-02-24T13:38:21;39.80;;;17.35;;
77330;SDS011;66405;48.328;7.820;2023-02-24T13:50:01;35.92;;;16.33;;
77330;SDS011;66405;48.328;7.820;2023-02-24T14:01:30;44.58;;;18.05;;
77330;SDS011;66405;48.328;7.820;2023-02-24T14:04:20;36.22;;;17.25;;
77330;SDS011;66405;48.328;7.820;2023-02-24T14:06:51;46.10;;;22.63;;
77330;SDS011;66405;48.328;7.820;2023-02-24T14:09:27;48.67;;;20.02;;
77330;SDS011;66405;48.328;7.820;2023-02-24T14:11:59;31.70;;;15.23;;
77330;SDS011;66405;48.328;7.820;2023-02-24T14:14:27;35.00;;;14.93;;
77330;SDS011;66405;48.328;7.820;2023-02-24T14:16:54;33.38;;;14.15;;
77330;SDS011;66405;48.328;7.820;2023-02-24T14:19:20;31.48;;;13.15;;
77330;SDS011;66405;48.328;7.820;2023-02-24T14:21:50;32.45;;;13.05;;
77330;SDS011;66405;48.328;7.820;2023-02-24T14:24:20;30.17;;;13.35;;
77330;SDS011;66405;48.328;7.820;2023-02-24T14:26:50;33.63;;;13.18;;
77330;SDS011;66405;48.328;7.820;2023-02-24T14:29:18;30.02;;;13.80;;
77330;SDS011;66405;48.328;7.820;2023-02-24T14:31:47;33.35;;;14.40;;
77330;SDS011;66405;48.328;7.820;2023-02-24T14:34:16;30.83;;;14.60;;
77330;SDS011;66405;48.328;7.820;2023-02-24T14:36:44;28.42;;;13.05;;
77330;SDS011;66405;48.328;7.820;2023-02-24T14:39:14;30.70;;;14.13;;
77330;SDS011;66405;48.328;7.820;2023-02-24T14:41:42;28.33;;;13.85;;
77330;SDS011;66405;48.328;7.820;2023-02-24T14:46:56;25.85;;;12.90;;
77330;SDS011;66405;48.328;7.820;2023-02-24T14:49:24;27.42;;;12.68;;
77330;SDS011;66405;48.328;7.820;2023-02-24T14:51:54;28.15;;;13.18;;
77330;SDS011;66405;48.328;7.820;2023-02-24T14:57:35;32.28;;;14.23;;
77330;SDS011;66405;48.328;7.820;2023-02-24T15:00:12;30.23;;;12.80;;
77330;SDS011;66405;48.328;7.820;2023-02-24T15:02:50;28.88;;;13.90;;
77330;SDS011;66405;48.328;7.820;2023-02-24T15:05:20;27.63;;;12.73;;
77330;SDS011;66405;48.328;7.820;2023-02-24T15:07:46;31.60;;;12.95;;
77330;SDS011;66405;48.328;7.820;2023-02-24T15:10:16;27.63;;;12.65;;
77330;SDS011;66405;48.328;7.820;2023-02-24T15:12:49;31.90;;;13.55;;
77330;SDS011;66405;48.328;7.820;2023-02-24T15:17:52;28.40;;;12.93;;
77330;SDS011;66405;48.328;7.820;2023-02-24T15:20:34;31.00;;;12.90;;
77330;SDS011;66405;48.328;7.820;2023-02-24T15:23:05;30.02;;;15.70;;
77330;SDS011;66405;48.328;7.820;2023-02-24T15:25:48;62.65;;;36.63;;
77330;SDS011;66405;48.328;7.820;2023-02-24T15:28:21;56.88;;;34.97;;
77330;SDS011;66405;48.328;7.820;2023-02-24T15:33:42;27.92;;;13.77;;
77330;SDS011;66405;48.328;7.820;2023-02-24T15:36:19;29.58;;;12.98;;
77330;SDS011;66405;48.328;7.820;2023-02-24T15:38:48;26.98;;;13.60;;
77330;SDS011;66405;48.328;7.820;2023-02-24T15:41:17;29.08;;;13.23;;
77330;SDS011;66405;48.328;7.820;2023-02-24T15:43:44;28.30;;;13.98;;
77330;SDS011;66405;48.328;7.820;2023-02-24T15:48:42;26.88;;;13.02;;
77330;SDS011;66405;48.328;7.820;2023-02-24T15:51:21;24.77;;;12.77;;
77330;SDS011;66405;48.328;7.820;2023-02-24T15:54:12;30.42;;;14.20;;
77330;SDS011;66405;48.328;7.820;2023-02-24T15:56:47;30.23;;;14.85;;
77330;SDS011;66405;48.328;7.820;2023-02-24T15:59:13;28.30;;;12.98;;
77330;SDS011;66405;48.328;7.820;2023-02-24T16:01:40;37.08;;;14.10;;
77330;SDS011;66405;48.328;7.820;2023-02-24T16:04:06;31.88;;;14.55;;
77330;SDS011;66405;48.328;7.820;2023-02-24T16:06:33;29.02;;;13.77;;
77330;SDS011;66405;48.328;7.820;2023-02-24T16:09:14;28.95;;;14.07;;
77330;SDS011;66405;48.328;7.820;2023-02-24T16:11:44;35.03;;;14.48;;
77330;SDS011;66405;48.328;7.820;2023-02-24T16:14:12;33.67;;;14.73;;
77330;SDS011;66405;48.328;7.820;2023-02-24T16:16:40;32.75;;;14.32;;
77330;SDS011;66405;48.328;7.820;2023-02-24T16:19:06;29.50;;;13.00;;
77330;SDS011;66405;48.328;7.820;2023-02-24T16:21:33;85.82;;;47.10;;
77330;SDS011;66405;48.328;7.820;2023-02-24T16:23:58;36.97;;;14.73;;
77330;SDS011;66405;48.328;7.820;2023-02-24T16:26:24;29.63;;;14.30;;
77330;SDS011;66405;48.328;7.820;2023-02-24T16:28:53;28.83;;;13.35;;
77330;SDS011;66405;48.328;7.820;2023-02-24T16:31:21;28.40;;;13.32;;
77330;SDS011;66405;48.328;7.820;2023-02-24T16:33:47;32.33;;;14.07;;
77330;SDS011;66405;48.328;7.820;2023-02-24T16:36:13;31.27;;;14.85;;
77330;SDS011;66405;48.328;7.820;2023-02-24T16:38:39;33.53;;;13.63;;
77330;SDS011;66405;48.328;7.820;2023-02-24T16:41:06;37.65;;;14.02;;
77330;SDS011;66405;48.328;7.820;2023-02-24T16:43:34;31.35;;;14.65;;
77330;SDS011;66405;48.328;7.820;2023-02-24T16:46:02;30.58;;;14.45;;
77330;SDS011;66405;48.328;7.820;2023-02-24T16:48:30;33.53;;;15.48;;
77330;SDS011;66405;48.328;7.820;2023-02-24T16:51:01;27.48;;;12.93;;
77330;SDS011;66405;48.328;7.820;2023-02-24T16:53:30;27.90;;;13.73;;
77330;SDS011;66405;48.328;7.820;2023-02-24T16:55:56;39.75;;;16.02;;
77330;SDS011;66405;48.328;7.820;2023-02-24T16:58:22;34.45;;;14.70;;
77330;SDS011;66405;48.328;7.820;2023-02-24T17:00:48;38.22;;;16.35;;
77330;SDS011;66405;48.328;7.820;2023-02-24T17:03:23;35.53;;;15.20;;
77330;SDS011;66405;48.328;7.820;2023-02-24T17:05:57;33.97;;;16.38;;
77330;SDS011;66405;48.328;7.820;2023-02-24T17:08:35;40.80;;;17.40;;
77330;SDS011;66405;48.328;7.820;2023-02-24T17:11:14;39.88;;;16.25;;
77330;SDS011;66405;48.328;7.820;2023-02-24T17:13:50;34.88;;;16.80;;
77330;SDS011;66405;48.328;7.820;2023-02-24T17:16:19;53.22;;;26.08;;
77330;SDS011;66405;48.328;7.820;2023-02-24T17:18:48;208.55;;;134.48;;
77330;SDS011;66405;48.328;7.820;2023-02-24T17:21:19;39.15;;;17.00;;
77330;SDS011;66405;48.328;7.820;2023-02-24T17:23:51;34.55;;;16.40;;
77330;SDS011;66405;48.328;7.820;2023-02-24T17:26:16;32.55;;;16.10;;
77330;SDS011;66405;48.328;7.820;2023-02-24T17:28:45;33.33;;;15.85;;
77330;SDS011;66405;48.328;7.820;2023-02-24T17:31:10;33.22;;;15.13;;
77330;SDS011;66405;48.328;7.820;2023-02-24T17:33:36;40.60;;;16.70;;
77330;SDS011;66405;48.328;7.820;2023-02-24T17:36:01;40.03;;;16.60;;
77330;SDS011;66405;48.328;7.820;2023-02-24T17:38:27;39.22;;;17.73;;
77330;SDS011;66405;48.328;7.820;2023-02-24T17:40:53;40.30;;;19.40;;
77330;SDS011;66405;48.328;7.820;2023-02-24T17:43:21;37.85;;;19.20;;
77330;SDS011;66405;48.328;7.820;2023-02-24T17:45:47;34.20;;;15.25;;
77330;SDS011;66405;48.328;7.820;2023-02-24T17:48:13;33.95;;;16.52;;
77330;SDS011;66405;48.328;7.820;2023-02-24T17:50:40;34.92;;;14.35;;
77330;SDS011;66405;48.328;7.820;2023-02-24T17:53:06;32.72;;;15.48;;
77330;SDS011;66405;48.328;7.820;2023-02-24T17:55:31;39.05;;;16.58;;